createdAt,value
2023-02-23T00:02:15.074Z,7.18
2023-02-23T00:04:41.673Z,6.94
2023-02-23T00:07:08.127Z,6.96
2023-02-23T00:09:34.612Z,6.81
2023-02-23T00:12:02.260Z,6.79
2023-02-23T00:14:29.183Z,6.92
2023-02-23T00:16:57.155Z,6.90
2023-02-23T00:19:23.784Z,6.97
2023-02-23T00:21:50.467Z,7.06
2023-02-23T00:24:17.576Z,6.94
2023-02-23T00:26:44.078Z,6.91
2023-02-23T00:29:12.882Z,6.89
2023-02-23T00:31:39.824Z,6.98
2023-02-23T00:34:07.851Z,6.91
2023-02-23T00:36:35.459Z,6.85
2023-02-23T00:39:04.555Z,6.77
2023-02-23T00:41:31.033Z,6.80
2023-02-23T00:43:59.782Z,6.87
2023-02-23T00:46:27.340Z,6.86
2023-02-23T00:48:54.293Z,6.65
2023-02-23T00:51:22.919Z,6.61
2023-02-23T00:53:49.489Z,6.80
2023-02-23T00:56:16.243Z,6.82
2023-02-23T00:58:42.984Z,6.85
2023-02-23T01:01:10.858Z,7.01
2023-02-23T01:03:41.404Z,7.27
2023-02-23T01:06:09.235Z,7.42
2023-02-23T01:08:38.858Z,7.12
2023-02-23T01:11:06.257Z,6.84
2023-02-23T01:13:32.719Z,6.84
2023-02-23T01:15:59.186Z,6.76
2023-02-23T01:18:25.764Z,6.68
2023-02-23T01:20:52.214Z,6.77
2023-02-23T01:23:20.895Z,7.10
2023-02-23T01:25:48.964Z,6.91
2023-02-23T01:28:15.412Z,7.09
2023-02-23T01:30:41.928Z,7.05
2023-02-23T01:33:08.504Z,7.37
2023-02-23T01:35:35.248Z,7.31
2023-02-23T01:38:05.046Z,7.19
2023-02-23T01:40:32.212Z,7.24
2023-02-23T01:43:00.869Z,7.32
2023-02-23T01:45:31.924Z,7.29
2023-02-23T01:47:59.485Z,7.43
2023-02-23T01:50:26.620Z,7.44
2023-02-23T01:52:53.271Z,7.39
2023-02-23T01:55:20.972Z,7.58
2023-02-23T01:57:47.562Z,7.58
2023-02-23T02:00:16.058Z,7.66
2023-02-23T02:02:42.553Z,7.76
2023-02-23T02:05:09.312Z,7.68
2023-02-23T02:07:36.877Z,7.67
2023-02-23T02:10:03.645Z,7.79
2023-02-23T02:12:30.234Z,7.71
2023-02-23T02:14:56.927Z,7.61
2023-02-23T02:17:31.831Z,7.68
2023-02-23T02:20:28.787Z,7.86
2023-02-23T02:23:25.843Z,7.81
2023-02-23T02:25:56.762Z,7.86
2023-02-23T02:28:30.793Z,7.88
2023-02-23T02:31:15.378Z,8.07
2023-02-23T02:34:01.443Z,8.01
2023-02-23T02:36:46.291Z,7.91
2023-02-23T02:39:15.867Z,8.14
2023-02-23T02:41:45.391Z,8.09
2023-02-23T02:44:15.334Z,8.20
2023-02-23T02:46:46.051Z,8.16
2023-02-23T02:49:15.225Z,8.18
2023-02-23T02:51:44.748Z,8.24
2023-02-23T02:54:15.172Z,8.19
2023-02-23T02:56:44.167Z,8.25
2023-02-23T02:59:13.259Z,8.15
2023-02-23T03:01:39.788Z,8.28
2023-02-23T03:04:19.757Z,8.13
2023-02-23T03:06:47.808Z,8.02
2023-02-23T03:09:23.782Z,8.06
2023-02-23T03:11:56.886Z,8.20
2023-02-23T03:14:28.382Z,8.20
2023-02-23T03:16:59.869Z,8.37
2023-02-23T03:19:27.613Z,8.46
2023-02-23T03:21:56.605Z,8.45
2023-02-23T03:24:27.672Z,8.27
2023-02-23T03:26:58.777Z,8.33
2023-02-23T03:29:31.170Z,8.49
2023-02-23T03:32:02.493Z,8.46
2023-02-23T03:34:32.138Z,8.36
2023-02-23T03:37:02.757Z,8.28
2023-02-23T03:39:31.072Z,8.40
2023-02-23T03:42:02.177Z,8.42
2023-02-23T03:44:31.269Z,8.40
2023-02-23T03:46:58.824Z,8.15
2023-02-23T03:49:27.665Z,8.10
2023-02-23T03:51:57.171Z,8.19
2023-02-23T03:54:27.292Z,8.36
2023-02-23T03:56:56.301Z,8.35
2023-02-23T03:59:25.659Z,8.30
2023-02-23T04:01:54.699Z,8.26
2023-02-23T04:04:23.012Z,8.30
2023-02-23T04:06:50.043Z,8.26
2023-02-23T04:09:16.525Z,8.30
2023-02-23T04:11:47.732Z,8.23
2023-02-23T04:14:16.987Z,8.39
2023-02-23T04:16:45.415Z,8.55
2023-02-23T04:19:12.236Z,8.51
2023-02-23T04:21:38.703Z,8.45
2023-02-23T04:24:05.369Z,8.43
2023-02-23T04:26:31.819Z,8.41
2023-02-23T04:28:58.303Z,8.38
2023-02-23T04:31:25.296Z,8.41
2023-02-23T04:33:53.435Z,8.51
2023-02-23T04:36:19.895Z,8.53
2023-02-23T04:38:46.331Z,8.57
2023-02-23T04:41:12.793Z,8.51
2023-02-23T04:43:39.269Z,8.60
2023-02-23T04:46:05.802Z,8.54
2023-02-23T04:51:17.122Z,8.56
2023-02-23T04:53:43.755Z,8.40
2023-02-23T04:56:10.294Z,8.38
2023-02-23T04:58:36.876Z,8.26
2023-02-23T05:01:06.701Z,8.20
2023-02-23T05:03:33.343Z,8.31
2023-02-23T05:05:59.888Z,8.30
2023-02-23T05:08:28.062Z,8.43
2023-02-23T05:11:20.726Z,8.48
2023-02-23T05:14:10.128Z,8.38
2023-02-23T05:16:36.695Z,8.54
2023-02-23T05:19:03.118Z,8.53
2023-02-23T05:21:29.592Z,8.63
2023-02-23T05:23:57.580Z,8.58
2023-02-23T05:26:24.111Z,8.56
2023-02-23T08:27:10.121Z,10.77
2023-02-23T08:29:36.639Z,10.82
2023-02-23T08:32:03.284Z,10.81
2023-02-23T08:34:29.885Z,10.77
2023-02-23T08:36:56.431Z,10.80
2023-02-23T08:39:23.270Z,11.07
2023-02-23T08:41:49.812Z,11.07
2023-02-23T08:44:19.148Z,11.06
2023-02-23T08:46:45.658Z,11.12
2023-02-23T08:49:26.087Z,11.14
2023-02-23T08:51:52.640Z,11.20
2023-02-23T08:54:19.219Z,11.34
2023-02-23T08:56:45.909Z,11.51
2023-02-23T08:59:13.544Z,11.56
2023-02-23T09:01:42.586Z,11.53
2023-02-23T09:04:09.271Z,11.62
2023-02-23T09:06:37.387Z,11.66
2023-02-23T09:09:04.064Z,11.75
2023-02-23T09:11:30.592Z,11.82
2023-02-23T09:13:57.965Z,11.87
2023-02-23T09:16:24.593Z,11.97
2023-02-23T09:18:52.660Z,11.98
2023-02-23T09:21:20.119Z,12.10
2023-02-23T09:23:46.933Z,12.31
2023-02-23T09:26:14.063Z,12.34
2023-02-23T09:28:40.570Z,12.32
2023-02-23T09:31:08.171Z,12.54
2023-02-23T09:33:34.877Z,12.62
2023-02-23T09:36:05.908Z,12.62
2023-02-23T09:38:32.411Z,12.68
2023-02-23T09:40:58.963Z,12.76
2023-02-23T09:43:29.533Z,12.78
2023-02-23T09:46:00.658Z,12.87
2023-02-23T09:48:28.581Z,12.86
2023-02-23T09:50:56.278Z,12.96
2023-02-23T09:53:32.742Z,13.05
2023-02-23T09:56:00.809Z,13.07
2023-02-23T09:58:28.281Z,13.08
2023-02-23T10:01:07.105Z,13.12
2023-02-23T10:03:34.826Z,13.20
2023-02-23T10:06:03.862Z,13.27
2023-02-23T10:08:48.628Z,13.32
2023-02-23T10:11:23.298Z,13.33
2023-02-23T10:13:55.839Z,13.41
2023-02-23T10:16:24.458Z,13.50
2023-02-23T10:18:55.390Z,13.54
2023-02-23T10:21:27.426Z,13.66
2023-02-23T10:23:58.381Z,13.66
2023-02-23T10:26:26.402Z,13.79
2023-02-23T10:28:54.102Z,13.72
2023-02-23T10:31:26.790Z,13.86
2023-02-23T10:33:55.585Z,13.93
2023-02-23T10:36:29.359Z,13.96
2023-02-23T10:38:57.388Z,13.90
2023-02-23T10:41:24.259Z,13.86
2023-02-23T10:43:50.865Z,13.88
2023-02-23T10:46:20.208Z,14.04
2023-02-23T10:48:47.557Z,13.84
2023-02-23T10:51:18.597Z,13.89
2023-02-23T10:53:45.578Z,13.93
2023-02-23T10:56:14.770Z,14.04
2023-02-23T10:58:45.405Z,14.24
2023-02-23T11:01:31.518Z,14.18
2023-02-23T11:04:20.623Z,14.36
2023-02-23T11:06:47.514Z,14.44
2023-02-23T11:09:45.690Z,14.24
2023-02-23T11:12:18.020Z,14.00
2023-02-23T11:14:45.343Z,13.93
2023-02-23T11:17:24.312Z,14.01
2023-02-23T11:19:57.074Z,13.85
2023-02-23T11:22:23.817Z,14.13
2023-02-23T11:24:50.456Z,14.57
2023-02-23T11:27:23.590Z,14.42
2023-02-23T11:29:51.799Z,14.51
2023-02-23T11:32:20.981Z,14.51
2023-02-23T11:37:31.621Z,14.47
2023-02-23T11:39:59.319Z,13.95
2023-02-23T11:42:37.032Z,13.99
2023-02-23T11:45:05.531Z,14.41
2023-02-23T11:48:01.433Z,14.48
2023-02-23T11:53:34.334Z,14.45
2023-02-23T11:56:32.262Z,14.30
2023-02-23T11:59:22.544Z,14.31
2023-02-23T12:02:06.678Z,14.09
2023-02-23T12:04:34.523Z,14.09
2023-02-23T12:07:20.145Z,14.16
2023-02-23T12:09:56.733Z,14.16
2023-02-23T12:15:20.082Z,14.16
2023-02-23T12:23:55.477Z,14.18
2023-02-23T12:26:23.835Z,14.18
2023-02-23T12:28:53.531Z,14.21
2023-02-23T12:31:24.322Z,13.99
2023-02-23T12:33:54.530Z,14.08
2023-02-23T12:36:26.721Z,14.16
2023-02-23T12:38:56.238Z,14.19
2023-02-23T12:41:31.552Z,14.14
2023-02-23T12:44:00.762Z,14.12
2023-02-23T12:46:29.941Z,14.06
2023-02-23T12:49:00.614Z,14.07
2023-02-23T12:51:32.291Z,14.08
2023-02-23T12:53:59.054Z,14.08
2023-02-23T12:56:33.448Z,13.98
2023-02-23T12:59:05.710Z,14.08
2023-02-23T13:01:35.475Z,14.13
2023-02-23T13:04:13.047Z,14.07
2023-02-23T13:06:52.078Z,14.04
2023-02-23T13:09:34.584Z,14.08
2023-02-23T13:12:07.872Z,14.06
2023-02-23T13:14:44.268Z,14.14
2023-02-23T13:17:27.835Z,14.16
2023-02-23T13:20:09.607Z,14.33
2023-02-23T13:22:43.460Z,14.43
2023-02-23T13:26:22.229Z,14.39
2023-02-23T13:28:41.312Z,14.58
2023-02-23T13:31:22.197Z,14.68
2023-02-23T13:34:15.082Z,14.88
2023-02-23T13:40:04.652Z,15.00
2023-02-23T13:45:55.358Z,15.12
2023-02-23T13:49:45.003Z,15.06
2023-02-23T13:51:48.789Z,15.01
2023-02-23T13:54:31.502Z,14.93
2023-02-23T13:57:06.142Z,14.88
2023-02-23T13:59:55.149Z,14.82
2023-02-23T14:02:55.627Z,14.80
2023-02-23T14:05:23.410Z,14.82
2023-02-23T14:07:52.133Z,14.74
2023-02-23T14:10:26.386Z,14.72
2023-02-23T14:13:36.523Z,14.60
2023-02-23T14:20:29.988Z,14.50
2023-02-23T14:23:12.205Z,14.59
2023-02-23T14:26:13.901Z,14.60
2023-02-23T14:28:53.081Z,14.52
2023-02-23T14:34:52.564Z,14.51
2023-02-23T14:37:23.375Z,14.51
2023-02-23T14:40:05.709Z,14.49
2023-02-23T14:52:52.543Z,14.32
2023-02-23T14:55:07.365Z,14.29
2023-02-23T14:57:38.840Z,14.26
2023-02-23T15:02:59.934Z,14.18
2023-02-23T15:05:35.291Z,14.16
2023-02-23T15:08:07.014Z,14.12
2023-02-23T15:10:36.726Z,14.08
2023-02-23T15:13:15.186Z,14.05
2023-02-23T15:15:47.683Z,14.04
2023-02-23T15:18:22.699Z,14.00
2023-02-23T15:20:51.068Z,13.98
2023-02-23T15:23:22.432Z,13.94
2023-02-23T15:25:49.005Z,13.88
2023-02-23T15:28:25.461Z,13.86
2023-02-23T15:30:56.208Z,13.85
2023-02-23T15:33:27.753Z,13.85
2023-02-23T15:41:39.937Z,13.71
2023-02-23T15:44:11.447Z,13.69
2023-02-23T15:46:44.245Z,13.71
2023-02-23T15:50:02.945Z,13.68
2023-02-23T15:52:06.793Z,13.63
2023-02-23T15:54:36.705Z,13.57
2023-02-23T15:57:05.950Z,13.52
2023-02-23T15:59:34.773Z,13.44
2023-02-23T16:02:02.206Z,13.43
2023-02-23T16:04:43.792Z,13.37
2023-02-23T16:07:15.940Z,13.36
2023-02-23T16:10:07.132Z,13.28
2023-02-23T16:12:36.472Z,13.25
2023-02-23T16:15:06.721Z,13.14
2023-02-23T16:17:37.931Z,13.07
2023-02-23T16:20:13.403Z,12.98
2023-02-23T16:22:41.385Z,12.85
2023-02-23T16:25:11.615Z,12.86
2023-02-23T16:27:39.630Z,12.87
2023-02-23T16:30:18.936Z,12.78
2023-02-23T16:32:45.905Z,12.76
2023-02-23T16:35:16.064Z,12.73
2023-02-23T16:40:38.935Z,12.69
2023-02-23T16:43:05.761Z,12.62
2023-02-23T16:45:33.024Z,12.67
2023-02-23T16:47:59.887Z,12.71
2023-02-23T16:50:26.902Z,12.67
2023-02-23T16:52:53.777Z,12.72
2023-02-23T16:55:21.692Z,12.70
2023-02-23T16:57:50.131Z,12.61
2023-02-23T17:00:21.273Z,12.69
2023-02-23T17:02:48.105Z,12.63
2023-02-23T17:05:16.741Z,12.67
2023-02-23T17:07:43.481Z,12.61
2023-02-23T17:10:16.262Z,12.48
2023-02-23T17:12:43.013Z,12.47
2023-02-23T17:15:16.710Z,12.58
2023-02-23T17:17:43.694Z,12.45
2023-02-23T17:20:11.728Z,12.70
2023-02-23T17:22:38.446Z,12.60
2023-02-23T17:25:06.166Z,12.54
2023-02-23T17:27:32.999Z,12.46
2023-02-23T17:29:59.808Z,12.42
2023-02-23T17:32:28.161Z,12.40
2023-02-23T17:34:55.118Z,12.48
2023-02-23T17:37:22.073Z,12.45
2023-02-23T17:39:49.145Z,12.48
2023-02-23T17:42:16.013Z,12.50
2023-02-23T17:44:42.794Z,12.51
2023-02-23T17:47:09.765Z,12.56
2023-02-23T17:49:38.043Z,12.49
2023-02-23T17:52:04.860Z,12.39
2023-02-23T17:54:31.719Z,12.33
2023-02-23T17:56:58.657Z,12.33
2023-02-23T17:59:25.482Z,12.19
2023-02-23T18:01:52.265Z,12.19
2023-02-23T18:04:19.111Z,12.23
2023-02-23T18:06:47.201Z,12.02
2023-02-23T18:09:13.986Z,12.12
2023-02-23T18:11:40.719Z,12.10
2023-02-23T18:14:07.439Z,12.08
2023-02-23T18:16:34.208Z,11.93
2023-02-23T18:19:00.896Z,11.80
2023-02-23T18:21:28.057Z,11.86
2023-02-23T18:23:56.676Z,11.81
2023-02-23T18:26:24.762Z,11.94
2023-02-23T18:28:52.668Z,11.95
2023-02-23T18:31:22.664Z,11.95
2023-02-23T18:33:52.015Z,11.90
2023-02-23T18:36:31.905Z,11.69
2023-02-23T18:39:06.868Z,11.64
2023-02-23T18:41:33.862Z,11.47
2023-02-23T18:44:02.409Z,11.53
2023-02-23T18:46:29.517Z,11.74
2023-02-23T18:48:56.548Z,11.73
2023-02-23T18:51:24.169Z,11.60
2023-02-23T18:53:51.562Z,11.70
2023-02-23T18:56:23.398Z,11.68
2023-02-23T18:58:54.742Z,11.73
2023-02-23T19:01:23.820Z,11.59
2023-02-23T19:03:51.834Z,11.66
2023-02-23T19:06:19.631Z,11.58
2023-02-23T19:08:50.122Z,11.56
2023-02-23T19:11:17.234Z,11.42
2023-02-23T19:13:45.516Z,11.31
2023-02-23T19:16:12.270Z,11.39
2023-02-23T19:18:39.231Z,11.44
2023-02-23T19:21:06.343Z,11.38
2023-02-23T19:23:36.042Z,11.27
2023-02-23T19:26:08.741Z,11.13
2023-02-23T19:28:35.600Z,11.28
2023-02-23T19:31:06.611Z,11.15
2023-02-23T19:33:33.820Z,11.30
2023-02-23T19:36:04.340Z,11.25
2023-02-23T19:38:31.622Z,11.26
2023-02-23T19:40:58.402Z,11.39
2023-02-23T19:43:25.575Z,11.29
2023-02-23T19:45:53.070Z,11.48
2023-02-23T19:48:21.393Z,11.49
2023-02-23T19:50:49.049Z,11.08
2023-02-23T19:53:15.907Z,11.38
2023-02-23T19:55:47.371Z,11.46
2023-02-23T19:58:21.414Z,11.33
2023-02-23T20:00:48.091Z,11.27
2023-02-23T20:03:14.922Z,11.17
2023-02-23T20:05:43.294Z,11.10
2023-02-23T20:08:10.198Z,10.95
2023-02-23T20:10:39.373Z,10.95
2023-02-23T20:13:06.424Z,11.19
2023-02-23T20:15:33.344Z,11.34
2023-02-23T20:18:00.250Z,11.29
2023-02-23T20:20:40.975Z,11.22
2023-02-23T20:23:12.024Z,11.35
2023-02-23T20:25:41.651Z,11.34
2023-02-23T20:28:08.555Z,11.48
2023-02-23T20:30:50.226Z,11.31
2023-02-23T20:33:19.502Z,11.24
2023-02-23T20:35:59.976Z,11.04
2023-02-23T20:38:43.101Z,11.00
2023-02-23T20:41:12.003Z,10.95
2023-02-23T20:43:39.143Z,10.88
2023-02-23T20:46:07.841Z,10.82
2023-02-23T20:48:35.862Z,10.68
2023-02-23T20:54:30.326Z,11.14
2023-02-23T21:08:18.490Z,10.95
2023-02-23T21:51:15.308Z,10.77
2023-02-23T21:53:43.492Z,10.85
2023-02-23T21:56:12.358Z,10.96
2023-02-23T21:58:45.087Z,10.70
2023-02-23T22:01:16.618Z,11.01
2023-02-23T22:03:43.848Z,11.01
2023-02-23T22:06:11.338Z,10.75
2023-02-23T22:08:40.080Z,10.81
2023-02-23T22:11:08.045Z,10.61
2023-02-23T22:13:35.012Z,10.85
2023-02-23T22:16:02.113Z,10.78
2023-02-23T22:18:29.082Z,10.88
2023-02-23T22:20:57.430Z,11.01
2023-02-23T22:23:24.403Z,11.06
2023-02-23T22:26:21.166Z,11.11
2023-02-23T23:06:28.425Z,10.92
2023-02-23T23:08:56.324Z,10.93
2023-02-23T23:11:25.020Z,11.03
2023-02-23T23:13:53.239Z,10.91
2023-02-23T23:16:31.174Z,10.74
2023-02-23T23:19:00.599Z,10.74
2023-02-23T23:21:30.273Z,10.70
2023-02-23T23:23:59.126Z,10.71
2023-02-23T23:26:27.929Z,10.61
2023-02-23T23:28:56.708Z,10.68
2023-02-23T23:31:26.696Z,10.74
2023-02-23T23:33:55.785Z,10.80
2023-02-23T23:36:24.465Z,10.69
2023-02-23T23:38:53.169Z,10.74
2023-02-23T23:41:20.628Z,10.71
2023-02-23T23:43:47.888Z,10.68
2023-02-23T23:46:15.696Z,10.59
2023-02-23T23:48:42.473Z,10.58
2023-02-23T23:51:09.157Z,10.56
2023-02-23T23:53:35.890Z,10.65
2023-02-23T23:56:05.959Z,10.75
2023-02-23T23:58:33.730Z,10.69
